Max Planck — ELZY8 — position and weather

sailwx.info

Track history (hours):
 
Tides and Currents Weather Stations Pressure Air Temp Water Temp Dewpoint Dewpoint Depression Visibility Wind Speed Wind Dir Waves Ship Positions

Max Planck

Last reported at 2017-Mar-26 02:24 UTC. Time now 2017-Apr-28 21:58 UTC.
Position N 35°03' E 139°37'.
Warning: this ship's position is 33 days out of date.

Length 99.9 m; beam 16.2 m; draft 6.8 m.

Type: Ship. MMSI: 636017362.

Date/timePositionNaut miles runAvg speedWind from/ knotsBaromVisibWave heightAir tempDewpointWater temp
2017-Mar-26 02:24N 35°03' E 139°37'910.5
2017-Mar-26 01:33N 35°09' E 139°45'1110.8
2017-Mar-26 00:34N 35°20' E 139°43'1110.8
2017-Mar-25 23:34N 35°29' E 139°50'1010.0
2017-Mar-25 22:32N 35°31' E 140°02'0 0.0
2017-Mar-25 07:16N 35°31' E 140°02'0 0.0
2017-Mar-25 06:04N 35°31' E 140°02'0 0.0
2017-Mar-25 05:28N 35°31' E 140°02'0 0.0
2017-Mar-25 04:25N 35°31' E 140°02'0 0.0
2017-Mar-25 03:31N 35°31' E 140°02'2 1.6
2017-Mar-25 02:33N 35°31' E 140°00'2 1.5
2017-Mar-25 01:33N 35°30' E 139°59'0 0.0
2017-Mar-25 00:27N 35°30' E 139°59'0 0.0
2017-Mar-24 23:33N 35°30' E 139°59'0 0.0
2017-Mar-24 22:33N 35°30' E 139°59'0 0.0
2017-Mar-24 21:33N 35°30' E 139°59'0 0.0
2017-Mar-24 20:33N 35°30' E 139°59'0 0.0
2017-Mar-24 19:33N 35°30' E 139°59'0 0.0
2017-Mar-24 18:33N 35°30' E 139°59'0 0.0
2017-Mar-24 17:33N 35°30' E 139°59'0 0.0
2017-Mar-24 16:33N 35°30' E 139°59'0 0.0
2017-Mar-24 15:33N 35°30' E 139°59'0 0.1
2017-Mar-24 14:33N 35°30' E 139°59'6 5.6
2017-Mar-24 13:33N 35°29' E 139°52'1111.0
2017-Mar-24 12:33N 35°20' E 139°44'10 9.9
2017-Mar-24 11:33N 35°10' E 139°47'  
2017-Mar-21 19:25N 33°07' E 132°05'  
Track history (hours):
 
Tides and Currents Weather Stations Pressure Air Temp Water Temp Dewpoint Dewpoint Depression Visibility Wind Speed Wind Dir Waves Ship Positions

Max Planck

Last reported at 2017-Mar-26 02:24 UTC. Time now 2017-Apr-28 21:58 UTC.
Position N 35°03' E 139°37'.
Warning: this ship's position is 33 days out of date.

Length 99.9 m; beam 16.2 m; draft 6.8 m.

Type: Ship. MMSI: 636017362.

Date/timePositionNaut miles runAvg speedWind from/ knotsBaromVisibWave heightAir tempDewpointWater temp
2017-Mar-26 02:24N 35°03' E 139°37'910.5
2017-Mar-26 01:33N 35°09' E 139°45'1110.8
2017-Mar-26 00:34N 35°20' E 139°43'1110.8
2017-Mar-25 23:34N 35°29' E 139°50'1010.0
2017-Mar-25 22:32N 35°31' E 140°02'0 0.0
2017-Mar-25 07:16N 35°31' E 140°02'0 0.0
2017-Mar-25 06:04N 35°31' E 140°02'0 0.0
2017-Mar-25 05:28N 35°31' E 140°02'0 0.0
2017-Mar-25 04:25N 35°31' E 140°02'0 0.0
2017-Mar-25 03:31N 35°31' E 140°02'2 1.6
2017-Mar-25 02:33N 35°31' E 140°00'2 1.5
2017-Mar-25 01:33N 35°30' E 139°59'0 0.0
2017-Mar-25 00:27N 35°30' E 139°59'0 0.0
2017-Mar-24 23:33N 35°30' E 139°59'0 0.0
2017-Mar-24 22:33N 35°30' E 139°59'0 0.0
2017-Mar-24 21:33N 35°30' E 139°59'0 0.0
2017-Mar-24 20:33N 35°30' E 139°59'0 0.0
2017-Mar-24 19:33N 35°30' E 139°59'0 0.0
2017-Mar-24 18:33N 35°30' E 139°59'0 0.0
2017-Mar-24 17:33N 35°30' E 139°59'0 0.0
2017-Mar-24 16:33N 35°30' E 139°59'0 0.0
2017-Mar-24 15:33N 35°30' E 139°59'0 0.1
2017-Mar-24 14:33N 35°30' E 139°59'6 5.6
2017-Mar-24 13:33N 35°29' E 139°52'1111.0
2017-Mar-24 12:33N 35°20' E 139°44'10 9.9
2017-Mar-24 11:33N 35°10' E 139°47'  
2017-Mar-21 19:25N 33°07' E 132°05'  

Dump ship's entire track history